Time;durP1;ratioP1;P1;durP2;ratioP2;P2;SDS_P1;SDS_P2;PMS_P1;PMS_P2;Temp;Humidity;BMP_temperature;BMP_pressure;BME280_temperature;BME280_humidity;BME280_pressure;Samples;Min_cycle;Max_cycle;Signal;HPM_P1;HPM_P2
2024/01/22 00:03:51;;;;;;;4.70;2.20;;;;;;;6.66;100.00;100716.81;10559866;27;20082;-80
2024/01/22 00:08:52;;;;;;;4.28;2.88;;;;;;;6.66;100.00;100692.53;10568714;27;20126;-79
2024/01/22 00:13:52;;;;;;;3.42;1.98;;;;;;;6.72;100.00;100680.75;10588443;27;20514;-79
2024/01/22 00:18:53;;;;;;;4.28;2.75;;;;;;;6.71;100.00;100654.69;10573241;27;20043;-80
2024/01/22 00:23:54;;;;;;;4.93;2.53;;;;;;;6.74;100.00;100654.88;10557109;27;20534;-82
2024/01/22 00:28:55;;;;;;;4.70;2.60;;;;;;;6.87;100.00;100618.38;10537029;27;20039;-79
2024/01/22 00:33:55;;;;;;;4.90;2.60;;;;;;;6.89;100.00;100621.94;10563079;27;20062;-79
2024/01/22 00:38:56;;;;;;;5.38;2.38;;;;;;;6.93;100.00;100612.59;10548058;27;20067;-80
2024/01/22 00:43:56;;;;;;;4.80;2.30;;;;;;;7.00;100.00;100590.47;10563801;27;20123;-80
2024/01/22 00:48:57;;;;;;;5.15;2.50;;;;;;;6.96;100.00;100596.28;10516785;27;20043;-83
2024/01/22 00:53:58;;;;;;;4.78;2.65;;;;;;;7.01;100.00;100567.09;10522748;28;20102;-79
2024/01/22 00:58:58;;;;;;;5.35;2.95;;;;;;;7.11;100.00;100552.03;10540661;28;20131;-80
2024/01/22 01:03:59;;;;;;;3.80;2.63;;;;;;;7.13;100.00;100533.09;10560139;28;20043;-78
2024/01/22 01:08:59;;;;;;;3.50;2.38;;;;;;;7.15;100.00;100517.53;10550853;28;20066;-79
2024/01/22 01:14:00;;;;;;;6.22;3.08;;;;;;;7.18;100.00;100533.34;10527558;27;20176;-78
2024/01/22 01:19:00;;;;;;;3.60;2.78;;;;;;;7.22;100.00;100527.50;10557747;27;20368;-78
2024/01/22 01:24:01;;;;;;;4.00;2.03;;;;;;;7.14;100.00;100524.47;10553672;28;20044;-78
2024/01/22 01:29:02;;;;;;;4.30;2.80;;;;;;;7.23;100.00;100531.00;10549486;28;20063;-79
2024/01/22 01:34:03;;;;;;;4.15;2.65;;;;;;;7.24;100.00;100541.47;10549794;28;20123;-79
2024/01/22 01:39:04;;;;;;;6.28;2.28;;;;;;;7.30;100.00;100552.25;10544860;27;20069;-79
2024/01/22 01:44:05;;;;;;;3.03;1.77;;;;;;;7.37;100.00;100561.31;10553198;27;20438;-80
2024/01/22 01:49:06;;;;;;;3.50;1.40;;;;;;;7.47;100.00;100544.47;10586805;27;20043;-79
2024/01/22 01:54:06;;;;;;;3.13;1.63;;;;;;;7.48;100.00;100523.75;10565684;27;20077;-80
2024/01/22 01:59:07;;;;;;;4.15;1.70;;;;;;;7.47;100.00;100519.34;10546234;27;20403;-79
2024/01/22 02:04:07;;;;;;;2.67;1.75;;;;;;;7.52;100.00;100500.47;10568077;27;20402;-79
2024/01/22 02:09:11;;;;;;;4.53;2.03;;;;;;;7.24;100.00;100463.41;10558529;27;20043;-80
2024/01/22 02:14:12;;;;;;;5.38;1.83;;;;;;;7.08;100.00;100448.66;10584364;27;20043;-79
2024/01/22 02:19:12;;;;;;;2.95;1.83;;;;;;;7.14;100.00;100424.66;10523900;27;20533;-79
2024/01/22 02:24:13;;;;;;;6.15;2.20;;;;;;;7.32;100.00;100411.75;10558622;27;20040;-79
2024/01/22 02:29:13;;;;;;;2.45;1.33;;;;;;;7.48;100.00;100396.13;10575494;27;20543;-78
2024/01/22 02:34:17;;;;;;;2.45;1.58;;;;;;;7.70;100.00;100406.75;10544419;27;20182;-79
2024/01/22 02:39:17;;;;;;;2.33;1.83;;;;;;;7.80;100.00;100414.25;10588028;27;20039;-78
2024/01/22 02:44:18;;;;;;;4.40;2.10;;;;;;;7.87;100.00;100405.91;10565898;27;20044;-78
2024/01/22 02:49:18;;;;;;;3.42;1.70;;;;;;;7.96;100.00;100389.88;10510013;28;20126;-78
2024/01/22 02:54:19;;;;;;;4.07;1.60;;;;;;;8.03;100.00;100383.25;10521680;28;20119;-78
2024/01/22 02:59:19;;;;;;;2.88;1.85;;;;;;;8.15;100.00;100365.63;10534148;28;20054;-79
2024/01/22 03:04:20;;;;;;;6.40;1.55;;;;;;;8.20;100.00;100338.06;10564287;28;20104;-78
2024/01/22 03:09:20;;;;;;;2.92;1.27;;;;;;;8.35;100.00;100337.91;10533270;28;20432;-78
2024/01/22 03:14:21;;;;;;;2.30;1.58;;;;;;;8.28;100.00;100320.19;10541915;28;20043;-79
2024/01/22 03:19:22;;;;;;;4.00;1.77;;;;;;;8.07;100.00;100310.50;10559829;28;20063;-78
2024/01/22 03:24:22;;;;;;;3.92;1.55;;;;;;;8.03;100.00;100305.06;10532652;28;20506;-79
2024/01/22 03:29:23;;;;;;;3.35;1.55;;;;;;;7.97;100.00;100295.25;10531871;28;20040;-79
2024/01/22 03:34:23;;;;;;;1.75;1.30;;;;;;;7.95;100.00;100302.09;10539898;28;20054;-78
2024/01/22 03:39:24;;;;;;;3.05;1.35;;;;;;;7.97;100.00;100265.66;10547822;28;20122;-78
2024/01/22 03:44:24;;;;;;;2.15;1.42;;;;;;;7.87;100.00;100270.44;10575600;27;20501;-78
2024/01/22 03:49:24;;;;;;;6.03;1.88;;;;;;;7.80;100.00;100270.94;10579736;27;20142;-78
2024/01/22 03:54:25;;;;;;;2.17;1.20;;;;;;;7.72;100.00;100262.78;10573765;27;20132;-78
2024/01/22 03:59:27;;;;;;;3.92;1.50;;;;;;;7.77;100.00;100257.78;10569727;27;20465;-76
2024/01/22 04:04:27;;;;;;;4.72;1.75;;;;;;;7.91;100.00;100242.84;10578679;27;20043;-78
2024/01/22 04:09:28;;;;;;;1.70;0.90;;;;;;;7.94;100.00;100253.41;10553608;27;20452;-78
2024/01/22 04:14:28;;;;;;;3.15;1.27;;;;;;;8.05;100.00;100227.84;10570052;27;20044;-77
2024/01/22 04:19:29;;;;;;;3.15;1.65;;;;;;;8.11;100.00;100222.91;10577536;27;20166;-79
2024/01/22 04:24:29;;;;;;;8.70;1.63;;;;;;;8.19;100.00;100221.56;10548610;27;20432;-78
2024/01/22 04:29:30;;;;;;;2.75;1.00;;;;;;;8.15;100.00;100208.34;10568355;27;20130;-76
2024/01/22 04:34:30;;;;;;;3.70;1.45;;;;;;;8.07;100.00;100198.44;10574833;27;20122;-76
2024/01/22 04:39:31;;;;;;;3.97;2.53;;;;;;;8.09;100.00;100198.50;10551363;28;20518;-76
2024/01/22 04:44:31;;;;;;;6.25;2.25;;;;;;;8.01;100.00;100187.72;10567054;27;20028;-76
2024/01/22 04:49:32;;;;;;;4.88;1.67;;;;;;;7.97;100.00;100198.81;10553599;28;20053;-76
2024/01/22 04:54:32;;;;;;;2.15;1.20;;;;;;;8.03;100.00;100190.38;10544975;28;20190;-77
2024/01/22 04:59:33;;;;;;;1.42;0.80;;;;;;;7.88;100.00;100193.19;10553688;28;20566;-75
2024/01/22 05:04:33;;;;;;;3.88;1.00;;;;;;;7.94;100.00;100201.28;10528981;28;20123;-76
2024/01/22 05:09:34;;;;;;;1.30;0.90;;;;;;;8.06;100.00;100203.56;10553652;28;20049;-76
2024/01/22 05:14:38;;;;;;;4.38;1.60;;;;;;;8.19;100.00;100189.41;10564680;28;20527;-77
2024/01/22 05:19:38;;;;;;;2.95;1.27;;;;;;;8.11;100.00;100183.81;10545465;28;20074;-76
2024/01/22 05:24:39;;;;;;;1.77;1.00;;;;;;;8.20;100.00;100185.97;10526806;28;20118;-77
2024/01/22 05:29:40;;;;;;;3.28;1.38;;;;;;;8.33;100.00;100177.91;10567463;28;20121;-77
2024/01/22 05:34:40;;;;;;;1.23;0.90;;;;;;;8.42;100.00;100177.41;10528582;28;20067;-76
2024/01/22 05:39:41;;;;;;;2.28;1.10;;;;;;;8.57;100.00;100127.69;10554625;28;20111;-76
2024/01/22 05:44:41;;;;;;;2.13;1.13;;;;;;;8.36;100.00;100140.63;10554887;28;20535;-77
2024/01/22 05:49:42;;;;;;;1.30;0.90;;;;;;;8.26;100.00;100169.72;10521355;28;20042;-76
2024/01/22 05:54:42;;;;;;;1.38;0.98;;;;;;;8.29;100.00;100154.22;10519339;28;20117;-76
2024/01/22 05:59:43;;;;;;;2.47;0.60;;;;;;;8.50;100.00;100149.13;10522296;28;20032;-77
2024/01/22 06:04:43;;;;;;;1.55;0.70;;;;;;;8.59;100.00;100133.88;10509225;28;20143;-76
2024/01/22 06:09:44;;;;;;;5.32;1.20;;;;;;;8.69;100.00;100119.50;10528006;28;20119;-77
2024/01/22 06:14:44;;;;;;;2.47;1.00;;;;;;;8.71;100.00;100110.03;10529416;28;20123;-80
2024/01/22 06:19:45;;;;;;;2.20;0.80;;;;;;;8.65;100.00;100126.31;10496115;28;20047;-77
2024/01/22 06:24:45;;;;;;;2.15;1.50;;;;;;;8.42;100.00;100124.38;10531646;28;20046;-76
2024/01/22 06:29:46;;;;;;;4.50;1.50;;;;;;;8.30;100.00;100135.13;10509081;28;20131;-78
2024/01/22 06:34:46;;;;;;;1.70;0.70;;;;;;;8.28;100.00;100153.34;10534595;28;20036;-81
2024/01/22 06:39:47;;;;;;;2.50;0.80;;;;;;;8.28;100.00;100152.44;10527547;28;20075;-78
2024/01/22 06:44:47;;;;;;;2.20;1.27;;;;;;;8.30;100.00;100133.44;10518140;28;20119;-78
2024/01/22 06:49:48;;;;;;;3.88;2.10;;;;;;;8.34;100.00;100137.97;10544667;28;20451;-77
2024/01/22 06:54:49;;;;;;;2.08;1.40;;;;;;;8.50;100.00;100128.25;10551971;28;20119;-76
2024/01/22 06:59:52;;;;;;;2.60;1.33;;;;;;;8.69;100.00;100132.53;10513731;28;20040;-77
2024/01/22 07:04:55;;;;;;;1.58;1.42;;;;;;;8.94;100.00;100120.53;10537404;28;20036;-77
2024/01/22 07:09:56;;;;;;;1.88;0.75;;;;;;;9.21;100.00;100127.75;10524916;28;20044;-77
2024/01/22 07:15:01;;;;;;;2.97;1.20;;;;;;;9.39;100.00;100135.47;10529305;28;20073;-79
2024/01/22 07:20:02;;;;;;;3.95;1.48;;;;;;;9.66;100.00;100134.78;10516568;28;20050;-78
2024/01/22 07:25:03;;;;;;;3.83;1.17;;;;;;;9.92;100.00;100130.56;10555036;28;20043;-80
2024/01/22 07:30:11;;;;;;;3.37;2.10;;;;;;;10.09;100.00;100139.06;10520384;28;20054;-82
2024/01/22 07:35:13;;;;;;;7.85;1.85;;;;;;;10.06;100.00;100149.41;10532237;28;20040;-81
2024/01/22 07:40:13;;;;;;;2.00;1.20;;;;;;;9.70;100.00;100161.09;10512350;28;20086;-81
2024/01/22 07:45:14;;;;;;;3.47;1.40;;;;;;;9.54;100.00;100172.66;10539547;28;20080;-82
2024/01/22 07:50:14;;;;;;;2.53;0.80;;;;;;;9.38;100.00;100201.59;10508301;28;20046;-81
2024/01/22 07:55:17;;;;;;;4.18;1.40;;;;;;;9.27;100.00;100213.28;10516438;28;20126;-78
2024/01/22 08:00:19;;;;;;;1.63;1.30;;;;;;;9.54;100.00;100205.72;10533956;28;20479;-80
2024/01/22 08:05:19;;;;;;;5.05;0.95;;;;;;;9.54;100.00;100213.53;10536588;28;20040;-79
2024/01/22 08:10:20;;;;;;;2.47;1.17;;;;;;;9.59;100.00;100222.47;10531858;28;20056;-80
2024/01/22 08:15:20;;;;;;;3.65;1.20;;;;;;;9.46;100.00;100204.50;10543833;28;20039;-80
2024/01/22 08:20:21;;;;;;;1.92;1.42;;;;;;;9.55;100.00;100203.16;10505902;28;20031;-80
2024/01/22 08:25:27;;;;;;;1.88;1.17;;;;;;;9.68;100.00;100208.91;10550192;28;20168;-81
2024/01/22 08:30:27;;;;;;;2.85;1.70;;;;;;;9.75;100.00;100189.13;10520005;28;20051;-79
2024/01/22 08:35:28;;;;;;;4.10;1.73;;;;;;;9.80;100.00;100203.25;10518115;28;20125;-78
2024/01/22 08:40:29;;;;;;;3.67;1.40;;;;;;;9.83;100.00;100212.13;10552378;28;20127;-78
2024/01/22 08:45:30;;;;;;;2.28;0.95;;;;;;;9.85;100.00;100209.56;10520436;28;20032;-79
2024/01/22 08:50:30;;;;;;;5.45;1.77;;;;;;;9.94;100.00;100211.66;10533796;28;20043;-81
2024/01/22 08:55:31;;;;;;;2.67;1.13;;;;;;;10.01;100.00;100218.00;10517680;28;20052;-78
2024/01/22 09:00:31;;;;;;;3.92;1.52;;;;;;;10.08;100.00;100214.81;10513743;28;20122;-80
2024/01/22 09:05:32;;;;;;;1.63;1.10;;;;;;;10.09;100.00;100225.34;10524340;28;20126;-79
2024/01/22 09:10:32;;;;;;;4.35;1.20;;;;;;;10.13;100.00;100213.25;10502507;28;20460;-79
2024/01/22 09:15:33;;;;;;;3.22;1.65;;;;;;;10.23;100.00;100218.03;10546628;28;21966;-79
2024/01/22 09:20:33;;;;;;;4.13;1.23;;;;;;;10.29;100.00;100218.25;10558102;28;20134;-78
2024/01/22 09:25:34;;;;;;;3.13;1.38;;;;;;;10.38;100.00;100229.91;10520035;28;20115;-78
2024/01/22 09:30:34;;;;;;;4.95;1.35;;;;;;;10.52;100.00;100215.66;10523591;28;20131;-81
2024/01/22 09:35:35;;;;;;;5.60;1.92;;;;;;;10.57;100.00;100214.09;10527019;28;20131;-78
2024/01/22 09:40:36;;;;;;;5.97;1.93;;;;;;;10.53;100.00;100227.03;10553687;28;20057;-78
2024/01/22 09:45:36;;;;;;;6.18;2.05;;;;;;;10.51;100.00;100228.69;10545614;28;20052;-79
2024/01/22 09:50:37;;;;;;;5.07;1.90;;;;;;;10.58;100.00;100247.28;10534577;28;20519;-78
2024/01/22 09:55:41;;;;;;;5.80;2.78;;;;;;;10.64;100.00;100236.16;10523859;28;20047;-78
2024/01/22 10:00:42;;;;;;;6.97;2.97;;;;;;;10.63;100.00;100244.84;10539142;28;20039;-81
2024/01/22 10:05:43;;;;;;;9.30;2.17;;;;;;;10.66;100.00;100254.53;10540025;28;20035;-80
2024/01/22 10:10:44;;;;;;;8.32;2.05;;;;;;;10.78;100.00;100247.13;10514502;28;20036;-80
2024/01/22 10:15:44;;;;;;;5.65;2.47;;;;;;;10.87;100.00;100242.22;10514257;28;20044;-83
2024/01/22 10:20:45;;;;;;;5.10;2.10;;;;;;;10.91;100.00;100239.72;10555822;28;20040;-80
2024/01/22 10:25:46;;;;;;;13.10;3.53;;;;;;;10.88;100.00;100243.13;10517620;28;20063;-80
2024/01/22 10:31:03;;;;;;;7.53;2.45;;;;;;;10.97;100.00;100253.94;10497868;28;20101;-82
2024/01/22 10:36:15;;;;;;;5.00;1.85;;;;;;;11.26;100.00;100229.59;10509804;28;20051;-80
2024/01/22 10:41:16;;;;;;;3.58;1.83;;;;;;;11.51;100.00;100246.16;10516376;28;20393;-80
2024/01/22 10:46:17;;;;;;;7.70;2.70;;;;;;;11.27;100.00;100242.78;10519299;28;20506;-79
2024/01/22 10:51:18;;;;;;;4.38;2.47;;;;;;;11.29;100.00;100250.66;10539243;28;20035;-78
2024/01/22 10:56:22;;;;;;;5.35;2.63;;;;;;;11.26;100.00;100258.41;10509198;28;20071;-79
2024/01/22 11:01:24;;;;;;;3.85;1.88;;;;;;;11.29;100.00;100251.59;10547859;28;20047;-78
2024/01/22 11:06:25;;;;;;;5.00;1.63;;;;;;;10.72;100.00;100279.22;10546613;28;20051;-77
2024/01/22 11:11:28;;;;;;;7.40;2.57;;;;;;;10.14;100.00;100351.94;10531623;28;20097;-76
2024/01/22 11:16:30;;;;;;;12.60;3.58;;;;;;;9.18;100.00;100360.91;10499734;28;20086;-76
2024/01/22 11:21:39;;;;;;;7.28;2.28;;;;;;;8.52;100.00;100353.50;10549004;28;20391;-76
2024/01/22 11:26:44;;;;;;;9.48;2.20;;;;;;;8.60;100.00;100373.03;10523057;28;20109;-76
2024/01/22 11:31:45;;;;;;;14.63;3.13;;;;;;;9.08;100.00;100385.69;10488014;28;20082;-77
2024/01/22 11:36:48;;;;;;;9.35;3.45;;;;;;;9.75;100.00;100372.03;10547989;28;20122;-77
2024/01/22 11:41:49;;;;;;;7.85;4.25;;;;;;;10.54;100.00;100357.03;10546592;28;20515;-76
2024/01/22 11:46:49;;;;;;;9.00;4.75;;;;;;;11.00;100.00;100318.63;10544734;27;20131;-76
2024/01/22 11:51:50;;;;;;;16.98;4.20;;;;;;;11.64;100.00;100292.03;10536870;28;20032;-79
2024/01/22 11:56:50;;;;;;;16.08;4.28;;;;;;;11.41;100.00;100306.13;10554672;27;20040;-77
2024/01/22 12:01:51;;;;;;;14.00;5.15;;;;;;;11.41;100.00;100320.97;10555221;28;20506;-77
2024/01/22 12:06:51;;;;;;;14.30;5.78;;;;;;;10.73;100.00;100342.91;10559174;28;20764;-77
2024/01/22 12:11:53;;;;;;;10.52;5.40;;;;;;;10.17;100.00;100363.34;10544586;28;20126;-80
2024/01/22 12:17:00;;;;;;;19.60;4.10;;;;;;;9.79;100.00;100368.75;10557393;28;20532;-79
2024/01/22 12:22:01;;;;;;;14.02;4.15;;;;;;;9.25;100.00;100388.16;10563308;27;20036;-78
2024/01/22 12:27:01;;;;;;;9.35;4.25;;;;;;;8.58;100.00;100433.75;10527973;28;20092;-78
2024/01/22 12:32:06;;;;;;;20.08;9.75;;;;;;;8.19;100.00;100439.66;10510503;28;20050;-77
2024/01/22 12:37:17;;;;;;;20.85;6.95;;;;;;;8.30;100.00;100433.28;10557263;28;20050;-78
2024/01/22 12:42:18;;;;;;;18.20;7.38;;;;;;;8.06;100.00;100452.06;10532320;28;20515;-79
2024/01/22 12:47:19;;;;;;;35.33;8.35;;;;;;;8.30;100.00;100455.84;10530810;27;20044;-79
2024/01/22 12:52:23;;;;;;;27.13;7.28;;;;;;;8.64;100.00;100467.97;10537287;28;20449;-79
2024/01/22 12:57:23;;;;;;;16.65;7.45;;;;;;;8.64;100.00;100457.53;10561744;28;20047;-79
2024/01/22 13:02:24;;;;;;;24.05;7.90;;;;;;;9.63;100.00;100451.69;10532589;28;20112;-78
2024/01/22 13:07:24;;;;;;;26.15;7.85;;;;;;;11.29;100.00;100447.16;10522364;28;20550;-79
2024/01/22 13:12:25;;;;;;;21.20;7.95;;;;;;;12.18;100.00;100474.84;10547061;28;20042;-79
2024/01/22 13:17:25;;;;;;;32.97;8.85;;;;;;;13.12;100.00;100497.19;10558841;28;20126;-79
2024/01/22 13:22:26;;;;;;;19.70;7.38;;;;;;;12.98;100.00;100523.91;10545932;28;20122;-80
2024/01/22 13:27:26;;;;;;;18.85;8.30;;;;;;;12.06;100.00;100533.03;10546661;28;20044;-78
2024/01/22 13:32:27;;;;;;;25.35;6.47;;;;;;;11.39;100.00;100542.72;10545682;28;20390;-78
2024/01/22 13:37:27;;;;;;;17.30;6.90;;;;;;;10.54;100.00;100524.50;10562587;28;20119;-79
2024/01/22 13:42:28;;;;;;;21.00;6.88;;;;;;;10.41;100.00;100530.91;10562278;28;20114;-80
2024/01/22 13:47:28;;;;;;;22.27;7.68;;;;;;;10.19;100.00;100531.69;10572884;28;20583;-79
2024/01/22 13:52:29;;;;;;;22.75;6.82;;;;;;;11.02;100.00;100561.38;10548850;28;20047;-80
2024/01/22 13:57:29;;;;;;;17.88;5.32;;;;;;;10.55;100.00;100584.72;10579275;28;20562;-80
2024/01/22 14:02:30;;;;;;;18.42;7.47;;;;;;;10.90;100.00;100594.91;10547587;28;20070;-79
2024/01/22 14:07:30;;;;;;;19.60;5.80;;;;;;;10.42;100.00;100590.25;10549969;28;20122;-79
2024/01/22 14:12:31;;;;;;;19.67;6.60;;;;;;;10.87;100.00;100586.94;10522119;28;20117;-80
2024/01/22 14:17:31;;;;;;;30.90;5.50;;;;;;;11.61;100.00;100604.72;10562974;28;20047;-79
2024/01/22 14:22:33;;;;;;;16.23;5.82;;;;;;;11.36;100.00;100622.09;10576459;27;20132;-79
2024/01/22 14:27:33;;;;;;;11.63;5.93;;;;;;;10.87;100.00;100627.09;10561879;27;20130;-78
2024/01/22 14:32:35;;;;;;;14.25;4.72;;;;;;;10.98;100.00;100637.13;10555613;27;20035;-81
2024/01/22 14:37:35;;;;;;;20.80;8.63;;;;;;;11.21;100.00;100647.66;10581832;27;20485;-78
2024/01/22 14:42:36;;;;;;;23.73;6.47;;;;;;;10.61;100.00;100646.00;10570814;27;20119;-80
2024/01/22 14:47:36;;;;;;;15.52;5.68;;;;;;;9.89;100.00;100640.16;10561106;28;20135;-81
2024/01/22 14:52:39;;;;;;;15.98;5.57;;;;;;;9.18;100.00;100639.38;10567050;28;20123;-81
2024/01/22 14:57:40;;;;;;;17.27;6.65;;;;;;;8.87;100.00;100630.91;10567839;28;20080;-81
2024/01/22 15:02:46;;;;;;;15.13;5.50;;;;;;;8.72;100.00;100633.63;10532572;27;20127;-82
2024/01/22 15:07:46;;;;;;;19.00;5.68;;;;;;;8.57;100.00;100635.44;10548940;27;20036;-80
2024/01/22 15:12:47;;;;;;;18.63;5.70;;;;;;;8.37;100.00;100636.16;10550246;28;20032;-81
2024/01/22 15:17:47;;;;;;;14.05;5.97;;;;;;;8.35;100.00;100649.94;10511225;28;20088;-79
2024/01/22 15:22:48;;;;;;;19.48;6.93;;;;;;;8.26;100.00;100652.03;10549849;28;20433;-80
2024/01/22 15:27:50;;;;;;;19.67;5.68;;;;;;;8.17;100.00;100668.09;10545463;28;20123;-78
2024/01/22 15:32:51;;;;;;;21.25;5.10;;;;;;;8.07;100.00;100678.03;10564937;28;20047;-77
2024/01/22 15:37:51;;;;;;;17.70;5.25;;;;;;;7.93;100.00;100699.81;10543708;28;20534;-78
2024/01/22 15:42:52;;;;;;;9.38;3.78;;;;;;;7.96;100.00;100704.28;10547458;28;20118;-78
2024/01/22 15:47:52;;;;;;;13.25;6.22;;;;;;;7.76;100.00;100719.72;10547769;28;20184;-78
2024/01/22 15:52:56;;;;;;;16.40;5.38;;;;;;;7.66;100.00;100731.31;10542718;28;20047;-81
2024/01/22 15:57:57;;;;;;;22.33;6.72;;;;;;;7.69;100.00;100721.09;10556252;28;20108;-80
2024/01/22 16:02:57;;;;;;;18.90;6.18;;;;;;;7.60;100.00;100728.38;10549251;28;20115;-80
2024/01/22 16:07:57;;;;;;;19.00;6.13;;;;;;;7.62;100.00;100726.75;10516598;28;20039;-79
2024/01/22 16:12:58;;;;;;;14.57;6.53;;;;;;;7.45;100.00;100741.38;10537763;28;20150;-82
2024/01/22 16:17:58;;;;;;;20.80;5.53;;;;;;;7.27;100.00;100757.72;10560597;27;20119;-79
2024/01/22 16:22:59;;;;;;;22.70;5.97;;;;;;;7.20;100.00;100761.69;10546138;28;20506;-79
2024/01/22 16:27:59;;;;;;;27.98;6.53;;;;;;;7.32;100.00;100768.44;10548298;27;20046;-79
2024/01/22 16:33:00;;;;;;;20.58;6.55;;;;;;;7.43;100.00;100782.97;10545815;28;20513;-79
2024/01/22 16:38:01;;;;;;;22.15;6.43;;;;;;;7.44;100.00;100794.28;10550597;28;20075;-80
2024/01/22 16:43:02;;;;;;;18.70;7.07;;;;;;;7.53;100.00;100814.78;10563552;27;20192;-80
2024/01/22 16:48:03;;;;;;;31.15;7.05;;;;;;;7.43;100.00;100819.44;10532059;28;20067;-80
2024/01/22 16:53:04;;;;;;;19.80;6.47;;;;;;;7.15;100.00;100825.59;10528030;28;20047;-80
2024/01/22 16:58:05;;;;;;;24.98;7.70;;;;;;;6.90;100.00;100829.28;10512786;28;20123;-80
2024/01/22 17:03:05;;;;;;;21.67;6.97;;;;;;;6.93;100.00;100840.69;10560331;28;20518;-79
2024/01/22 17:08:06;;;;;;;27.55;10.00;;;;;;;6.96;100.00;100848.69;10547568;28;20122;-78
2024/01/22 17:13:07;;;;;;;14.60;5.75;;;;;;;6.96;100.00;100857.38;10558627;28;20452;-79
2024/01/22 17:18:08;;;;;;;12.45;5.22;;;;;;;6.87;100.00;100872.41;10557714;28;20542;-78
2024/01/22 17:23:09;;;;;;;22.00;5.00;;;;;;;6.71;100.00;100891.38;10558911;28;20035;-78
2024/01/22 17:28:10;;;;;;;14.25;5.57;;;;;;;6.70;100.00;100900.88;10562829;28;20484;-78
2024/01/22 17:33:14;;;;;;;22.25;4.88;;;;;;;6.89;100.00;100917.63;10536073;28;20139;-78
2024/01/22 17:38:15;;;;;;;13.48;4.53;;;;;;;7.14;100.00;100933.09;10560485;28;20407;-81
2024/01/22 17:43:15;;;;;;;15.00;4.75;;;;;;;7.26;100.00;100943.38;10554736;28;20127;-79
2024/01/22 17:48:17;;;;;;;14.32;5.03;;;;;;;7.29;100.00;100953.09;10546790;28;20146;-79
2024/01/22 17:53:17;;;;;;;12.40;4.43;;;;;;;7.34;100.00;100955.16;10560569;28;20031;-79
2024/01/22 17:58:18;;;;;;;12.95;5.65;;;;;;;7.27;100.00;100952.09;10532271;28;20084;-79
2024/01/22 18:03:18;;;;;;;20.42;6.28;;;;;;;7.12;100.00;100950.34;10545348;28;20455;-79
2024/01/22 18:08:19;;;;;;;16.17;5.40;;;;;;;7.17;100.00;100961.03;10547127;27;20134;-79
2024/01/22 18:13:19;;;;;;;15.65;5.35;;;;;;;7.12;100.00;100963.34;10543362;28;20036;-79
2024/01/22 18:18:20;;;;;;;17.23;5.20;;;;;;;6.99;100.00;100979.00;10549352;28;20123;-80
2024/01/22 18:23:21;;;;;;;15.40;5.70;;;;;;;6.86;100.00;100987.69;10527987;28;20047;-80
2024/01/22 18:28:21;;;;;;;19.75;5.88;;;;;;;6.99;100.00;100990.28;10551030;28;20198;-79
2024/01/22 18:33:23;;;;;;;13.25;6.45;;;;;;;7.11;100.00;100989.25;10557138;27;20067;-78
2024/01/22 18:38:23;;;;;;;20.60;6.38;;;;;;;7.19;100.00;100991.56;10569420;28;20044;-78
2024/01/22 18:43:24;;;;;;;18.45;7.03;;;;;;;7.20;100.00;101010.66;10568201;28;20040;-79
2024/01/22 18:48:24;;;;;;;18.95;5.63;;;;;;;7.16;100.00;101012.19;10552495;27;20165;-78
2024/01/22 18:53:25;;;;;;;24.52;7.30;;;;;;;7.23;100.00;101029.09;10550488;28;20047;-78
2024/01/22 18:58:25;;;;;;;23.88;6.45;;;;;;;7.30;100.00;101035.59;10553360;27;20445;-78
2024/01/22 19:03:31;;;;;;;19.85;6.63;;;;;;;7.19;100.00;101046.22;10552003;28;20130;-79
2024/01/22 19:08:32;;;;;;;18.33;7.55;;;;;;;7.25;100.00;101076.94;10548761;28;20495;-79
2024/01/22 19:13:32;;;;;;;16.90;6.85;;;;;;;7.34;100.00;101069.72;10570304;27;20135;-79
2024/01/22 19:18:33;;;;;;;23.20;5.65;;;;;;;7.42;100.00;101078.03;10548728;27;20138;-76
2024/01/22 19:23:34;;;;;;;25.40;6.70;;;;;;;7.41;100.00;101099.69;10548614;28;20046;-78
2024/01/22 19:28:35;;;;;;;19.95;7.15;;;;;;;7.31;100.00;101120.72;10554965;27;20138;-78
2024/01/22 19:33:35;;;;;;;20.77;7.50;;;;;;;7.18;100.00;101108.59;10524732;27;20494;-78
2024/01/22 19:38:36;;;;;;;28.67;6.78;;;;;;;7.10;100.00;101115.91;10567843;28;20069;-78
2024/01/22 19:43:37;;;;;;;12.88;5.93;;;;;;;7.09;100.00;101114.13;10547868;27;20055;-78
2024/01/22 19:48:37;;;;;;;14.90;5.63;;;;;;;7.18;100.00;101124.22;10508199;28;20101;-82
2024/01/22 19:53:38;;;;;;;28.67;5.75;;;;;;;7.25;100.00;101133.34;10504014;28;20052;-78
2024/01/22 19:58:39;;;;;;;27.23;6.95;;;;;;;7.35;100.00;101139.22;10536784;28;20081;-78
2024/01/22 20:03:40;;;;;;;11.77;4.47;;;;;;;7.25;100.00;101142.03;10494801;28;20070;-80
2024/01/22 20:08:40;;;;;;;13.45;5.80;;;;;;;7.05;100.00;101144.22;10503944;28;20489;-77
2024/01/22 20:13:41;;;;;;;14.85;5.47;;;;;;;6.88;100.00;101132.72;10529993;28;20109;-76
2024/01/22 20:18:41;;;;;;;19.13;4.15;;;;;;;6.71;100.00;101147.16;10523228;28;20123;-77
2024/01/22 20:23:42;;;;;;;15.40;4.90;;;;;;;6.57;100.00;101143.66;10525050;28;20566;-76
2024/01/22 20:28:42;;;;;;;18.40;4.50;;;;;;;6.55;100.00;101153.03;10540405;28;20047;-76
2024/01/22 20:33:43;;;;;;;23.20;4.78;;;;;;;6.44;100.00;101152.28;10505024;28;20036;-76
2024/01/22 20:38:46;;;;;;;12.75;5.10;;;;;;;6.39;100.00;101160.59;10532080;28;20127;-76
2024/01/22 20:43:46;;;;;;;14.18;5.25;;;;;;;6.45;100.00;101151.50;10530732;27;20038;-75
2024/01/22 20:48:47;;;;;;;21.33;8.00;;;;;;;6.40;100.00;101154.59;10546990;27;20035;-75
2024/01/22 20:53:47;;;;;;;22.58;6.90;;;;;;;6.44;100.00;101149.69;10509934;27;20612;-74
2024/01/22 20:58:48;;;;;;;26.85;5.07;;;;;;;6.55;100.00;101153.03;10525025;27;20048;-76
2024/01/22 21:03:48;;;;;;;28.58;7.35;;;;;;;6.63;100.00;101143.16;10525292;27;20505;-76
2024/01/22 21:08:49;;;;;;;25.42;6.00;;;;;;;6.70;100.00;101139.28;10504396;27;20051;-76
2024/01/22 21:13:50;;;;;;;21.58;7.53;;;;;;;6.54;100.00;101145.13;10524290;28;20042;-76
2024/01/22 21:18:50;;;;;;;18.10;5.85;;;;;;;6.53;100.00;101145.91;10513607;28;20444;-76
2024/01/22 21:23:53;;;;;;;19.05;6.30;;;;;;;6.66;100.00;101151.16;10475452;28;20047;-76
2024/01/22 21:28:53;;;;;;;22.38;5.55;;;;;;;6.88;100.00;101178.63;10496264;27;20084;-75
2024/01/22 21:33:54;;;;;;;18.75;6.03;;;;;;;7.03;100.00;101165.75;10522550;27;20055;-75
2024/01/22 21:38:54;;;;;;;22.85;6.88;;;;;;;7.15;100.00;101181.28;10533278;27;20583;-77
2024/01/22 21:43:55;;;;;;;16.30;6.30;;;;;;;7.23;100.00;101185.28;10529421;27;20043;-77
2024/01/22 21:48:55;;;;;;;11.20;4.88;;;;;;;7.26;100.00;101187.22;10512870;27;20113;-76
2024/01/22 21:53:56;;;;;;;19.98;6.90;;;;;;;7.30;100.00;101189.22;10530591;27;20052;-77
2024/01/22 21:58:56;;;;;;;17.15;7.03;;;;;;;7.26;100.00;101190.69;10521797;27;20047;-77
2024/01/22 22:03:57;;;;;;;25.20;9.18;;;;;;;7.26;100.00;101205.44;10533104;27;20055;-76
2024/01/22 22:08:57;;;;;;;21.42;6.95;;;;;;;7.23;100.00;101205.25;10530478;27;20495;-76
2024/01/22 22:13:58;;;;;;;17.27;7.35;;;;;;;7.33;100.00;101199.84;10514830;27;20047;-76
2024/01/22 22:18:58;;;;;;;14.13;5.95;;;;;;;7.26;100.00;101213.25;10513175;27;20039;-77
2024/01/22 22:23:59;;;;;;;15.65;6.22;;;;;;;7.22;100.00;101212.13;10494819;27;20539;-76
2024/01/22 22:29:00;;;;;;;26.52;6.60;;;;;;;7.20;100.00;101230.25;10511726;27;20065;-77
2024/01/22 22:34:00;;;;;;;15.63;7.05;;;;;;;7.18;100.00;101234.47;10493271;27;20047;-76
2024/01/22 22:39:01;;;;;;;22.20;7.43;;;;;;;7.15;100.00;101255.09;10512431;27;20039;-77
2024/01/22 22:44:02;;;;;;;17.48;5.32;;;;;;;7.15;100.00;101269.78;10511853;27;20074;-77
2024/01/22 22:49:03;;;;;;;14.40;6.13;;;;;;;7.15;100.00;101269.78;10513633;27;20085;-76
2024/01/22 22:54:04;;;;;;;16.23;5.88;;;;;;;7.01;100.00;101295.78;10510015;27;20069;-76